Terminal Aerodrome Forecast
Issued by NWS Sterling, VA

Current Version | Previous Version | Graphics & Text | Print | Product List | Glossary On
Versions: 1 2 3 4 5 6 7 8 9 10 11 12 13 14 15 16 17 18 19 20 21 22 23 24 25 26 27 28 29 30
000
FTUS41 KLWX 010536
TAFDCA
TAF
KDCA 010536Z 0106/0206 18007KT 6SM -SHRA BKN060
     FM010800 19006KT P6SM BKN060
     FM011300 21006KT P6SM -SHRA BKN090
     FM011600 22006KT P6SM SHRA VCTS BKN070CB
     FM012200 18005KT P6SM SHRA BKN050
     FM020200 31004KT P6SM SHRA OVC060=

USA.gov is the U.S. government's official web portal to all federal, state and local government web resources and services.